< < Back
Terminal Aerodrome Forecast


Current Version              Previous Versions:   1  2  3  4  5  6  7  8  9  

Terminal Aerodrome Forecast

271
FTUS42 KTAE 201400 AAA
TAFABY
TAF AMD
KABY 201422Z 2014/2112 04010KT P6SM OVC012
     FM202100 05008KT P6SM BKN020 BKN050
     FM202300 05004KT P6SM SKC=

Latest METAR

402
SAUS70 KWBC 210500 RRK
MTRABY
METAR KABY 210453Z 00000KT 7SM CLR 11/11 A3015 RMK AO2 SLP210 T01110106
402060111 PNO $


USA.gov is the U.S. government's official web portal to all federal, state and local government web resources and services.